createdAt,value
2019-05-01T00:01:17.771Z,53.33
2019-05-01T00:04:00.107Z,52.63
2019-05-01T00:06:32.768Z,51.90
2019-05-01T00:09:01.611Z,55.53
2019-05-01T00:11:29.807Z,55.40
2019-05-01T00:13:58.034Z,54.63
2019-05-01T00:16:26.231Z,56.50
2019-05-01T00:18:54.763Z,59.30
2019-05-01T00:21:22.978Z,58.23
2019-05-01T00:23:51.202Z,59.07
2019-05-01T00:26:19.420Z,61.57
2019-05-01T00:28:47.615Z,68.33
2019-05-01T00:31:15.901Z,63.73
2019-05-01T00:33:44.408Z,62.90
2019-05-01T00:36:12.696Z,66.17
2019-05-01T00:38:40.919Z,68.23
2019-05-01T00:41:09.116Z,66.80
2019-05-01T00:43:37.331Z,63.37
2019-05-01T00:46:05.526Z,67.80
2019-05-01T00:48:34.050Z,70.63
2019-05-01T00:51:02.643Z,73.63
2019-05-01T00:53:30.843Z,71.33
2019-05-01T00:56:01.475Z,70.03
2019-05-01T00:58:40.344Z,72.67
2019-05-01T01:01:10.172Z,71.33
2019-05-01T01:03:39.256Z,78.40
2019-05-01T01:06:07.731Z,70.57
2019-05-01T01:08:36.539Z,64.57
2019-05-01T01:11:05.027Z,70.60
2019-05-01T01:13:33.707Z,65.43
2019-05-01T01:16:01.927Z,75.13
2019-05-01T01:18:30.131Z,70.97
2019-05-01T01:20:58.350Z,80.37
2019-05-01T01:23:27.113Z,77.47
2019-05-01T01:25:55.403Z,80.83
2019-05-01T01:28:23.676Z,86.97
2019-05-01T01:30:56.609Z,81.33
2019-05-01T01:33:21.997Z,79.83
2019-05-01T01:35:50.206Z,82.33
2019-05-01T01:38:18.418Z,83.33
2019-05-01T01:40:47.093Z,78.67
2019-05-01T01:43:33.796Z,85.97
2019-05-01T01:46:04.431Z,81.60
2019-05-01T01:48:33.011Z,82.57
2019-05-01T01:51:01.482Z,80.37
2019-05-01T01:53:30.020Z,84.23
2019-05-01T01:55:58.297Z,88.50
2019-05-01T01:58:26.863Z,92.43
2019-05-01T02:01:09.181Z,90.97
2019-05-01T02:03:33.923Z,98.27
2019-05-01T02:06:02.113Z,99.60
2019-05-01T02:08:30.405Z,112.27
2019-05-01T02:10:58.598Z,100.60
2019-05-01T02:13:26.829Z,101.93
2019-05-01T02:15:55.299Z,107.27
2019-05-01T02:18:23.510Z,107.33
2019-05-01T02:20:52.055Z,103.80
2019-05-01T02:23:20.270Z,110.13
2019-05-01T02:25:48.726Z,106.17
2019-05-01T02:28:24.861Z,107.37
2019-05-01T02:31:27.304Z,105.83
2019-05-01T02:33:43.799Z,107.47
2019-05-01T02:36:14.274Z,109.33
2019-05-01T02:38:44.808Z,111.70
2019-05-01T02:41:14.576Z,107.30
2019-05-01T02:43:46.087Z,110.20
2019-05-01T02:46:16.706Z,110.70
2019-05-01T02:48:52.846Z,110.50
2019-05-01T02:51:21.417Z,110.83
2019-05-01T02:53:50.352Z,111.80
2019-05-01T02:56:24.782Z,117.27
2019-05-01T02:58:55.617Z,120.40
2019-05-01T03:01:24.558Z,111.77
2019-05-01T03:03:53.792Z,121.93
2019-05-01T03:06:22.475Z,119.57
2019-05-01T03:08:52.645Z,120.83
2019-05-01T03:11:21.259Z,116.90
2019-05-01T03:13:52.318Z,114.90
2019-05-01T03:16:21.652Z,127.47
2019-05-01T03:18:54.425Z,122.80
2019-05-01T03:21:33.232Z,116.33
2019-05-01T03:24:06.384Z,120.27
2019-05-01T03:26:35.891Z,118.47
2019-05-01T03:29:05.621Z,125.33
2019-05-01T03:31:33.917Z,122.57
2019-05-01T03:34:02.240Z,121.83
2019-05-01T03:36:30.517Z,123.40
2019-05-01T03:38:59.019Z,109.23
2019-05-01T03:41:28.209Z,107.27
2019-05-01T03:43:56.992Z,108.30
2019-05-01T03:46:26.500Z,88.27
2019-05-01T03:48:55.423Z,92.93
2019-05-01T03:51:23.674Z,95.93
2019-05-01T03:53:52.239Z,88.93
2019-05-01T03:56:21.241Z,83.80
2019-05-01T03:58:49.530Z,83.27
2019-05-01T04:01:23.120Z,80.53
2019-05-01T04:03:52.960Z,77.87
2019-05-01T04:06:21.647Z,73.90
2019-05-01T04:08:50.197Z,77.73
2019-05-01T04:11:19.117Z,76.50
2019-05-01T04:13:47.774Z,78.63
2019-05-01T04:16:16.489Z,75.33
2019-05-01T04:18:44.694Z,76.83
2019-05-01T04:21:12.911Z,77.13
2019-05-01T04:23:42.898Z,78.90
2019-05-01T04:26:11.552Z,76.57
2019-05-01T04:28:57.567Z,73.80
2019-05-01T04:31:36.247Z,71.90
2019-05-01T04:34:12.179Z,73.07
2019-05-01T04:36:57.952Z,72.83
2019-05-01T04:39:26.141Z,73.83
2019-05-01T04:41:54.500Z,65.03
2019-05-01T04:44:23.051Z,73.37
2019-05-01T04:46:53.403Z,71.20
2019-05-01T04:49:21.380Z,70.10
2019-05-01T04:51:49.651Z,76.03
2019-05-01T04:54:18.347Z,70.97
2019-05-01T04:56:46.553Z,70.90
2019-05-01T04:59:15.079Z,66.20
2019-05-01T05:01:57.785Z,68.20
2019-05-01T05:04:26.711Z,75.37
2019-05-01T05:06:55.934Z,71.90
2019-05-01T05:09:39.118Z,71.90
2019-05-01T05:12:26.947Z,71.50
2019-05-01T05:15:05.857Z,72.93
2019-05-01T05:17:34.069Z,72.50
2019-05-01T05:20:03.347Z,65.03
2019-05-01T05:22:31.977Z,72.27
2019-05-01T05:25:00.515Z,72.87
2019-05-01T05:27:29.398Z,84.53
2019-05-01T05:29:57.773Z,77.17
2019-05-01T05:32:28.461Z,72.03
2019-05-01T05:34:59.384Z,82.60
2019-05-01T05:37:31.222Z,77.30
2019-05-01T05:40:01.663Z,79.23
2019-05-01T05:42:30.688Z,83.83
2019-05-01T05:44:59.141Z,87.80
2019-05-01T05:47:27.362Z,82.30
2019-05-01T05:49:55.630Z,105.83
2019-05-01T05:52:44.674Z,143.83
2019-05-01T05:55:14.939Z,142.60
2019-05-01T05:57:47.110Z,152.87
2019-05-01T06:00:33.614Z,148.07
2019-05-01T06:03:30.985Z,136.20
2019-05-01T06:06:04.734Z,133.17
2019-05-01T06:08:36.001Z,141.60
2019-05-01T06:11:09.717Z,138.60
2019-05-01T06:13:57.075Z,133.83
2019-05-01T06:16:30.032Z,135.67
2019-05-01T06:19:16.417Z,123.43
2019-05-01T06:21:46.587Z,122.33
2019-05-01T06:24:22.441Z,128.37
2019-05-01T06:26:50.847Z,127.57
2019-05-01T06:29:19.106Z,128.00
2019-05-01T06:31:47.381Z,143.40
2019-05-01T06:34:15.666Z,134.47
2019-05-01T06:36:44.365Z,134.10
2019-05-01T06:39:13.799Z,142.97
2019-05-01T06:41:43.748Z,150.37
2019-05-01T06:44:14.470Z,146.27
2019-05-01T06:46:48.647Z,144.43
2019-05-01T06:49:29.541Z,141.33
2019-05-01T06:51:58.841Z,141.30
2019-05-01T06:54:29.401Z,145.77
2019-05-01T06:57:00.531Z,142.90
2019-05-01T06:59:31.606Z,153.50
2019-05-01T07:02:00.581Z,157.67
2019-05-01T07:04:32.358Z,140.83
2019-05-01T07:07:06.667Z,140.67
2019-05-01T07:09:34.154Z,151.40
2019-05-01T07:12:05.949Z,140.13
2019-05-01T07:14:34.695Z,152.77
2019-05-01T07:17:02.969Z,140.10
2019-05-01T07:19:50.094Z,135.40
2019-05-01T07:22:18.626Z,143.20
2019-05-01T07:24:49.078Z,131.20
2019-05-01T07:27:18.713Z,128.43
2019-05-01T07:29:48.724Z,128.93
2019-05-01T07:32:16.973Z,130.50
2019-05-01T07:34:45.469Z,126.57
2019-05-01T07:37:13.938Z,130.07
2019-05-01T07:39:44.938Z,131.53
2019-05-01T07:42:32.589Z,133.13
2019-05-01T07:45:08.374Z,132.53
2019-05-01T07:47:36.118Z,140.07
2019-05-01T07:50:13.057Z,148.20
2019-05-01T07:52:42.651Z,154.00
2019-05-01T07:55:13.131Z,156.03
2019-05-01T07:57:41.515Z,140.00
2019-05-01T08:00:12.711Z,151.00
2019-05-01T08:02:40.911Z,154.87
2019-05-01T08:05:11.593Z,153.17
2019-05-01T08:07:39.656Z,158.63
2019-05-01T08:10:07.997Z,139.50
2019-05-01T08:12:36.514Z,157.30
2019-05-01T08:15:06.254Z,177.20
2019-05-01T08:17:36.115Z,181.53
2019-05-01T08:20:09.937Z,188.37
2019-05-01T08:22:39.088Z,178.93
2019-05-01T08:25:07.914Z,182.80
2019-05-01T08:27:40.718Z,175.57
2019-05-01T08:30:25.814Z,172.27
2019-05-01T08:33:14.696Z,180.33
2019-05-01T08:35:40.722Z,185.77
2019-05-01T08:38:08.947Z,182.87
2019-05-01T08:40:37.389Z,178.43
2019-05-01T08:43:05.666Z,185.83
2019-05-01T08:45:50.656Z,186.40
2019-05-01T08:48:20.497Z,173.60
2019-05-01T08:50:49.046Z,178.77
2019-05-01T08:53:18.018Z,190.33
2019-05-01T08:55:47.219Z,189.60
2019-05-01T08:58:16.002Z,174.93
2019-05-01T09:00:44.308Z,178.50
2019-05-01T09:03:13.592Z,178.10
2019-05-01T09:05:42.450Z,170.83
2019-05-01T09:08:10.658Z,189.40
2019-05-01T09:10:38.849Z,177.10
2019-05-01T09:13:07.066Z,165.50
2019-05-01T09:15:35.288Z,184.77
2019-05-01T09:18:03.758Z,182.27
2019-05-01T09:20:33.237Z,178.73
2019-05-01T09:23:01.745Z,182.30
2019-05-01T09:25:35.372Z,172.97
2019-05-01T09:28:04.272Z,173.93
2019-05-01T09:30:37.851Z,168.07
2019-05-01T09:33:06.114Z,165.10
2019-05-01T09:35:34.338Z,177.00
2019-05-01T09:38:02.872Z,176.53
2019-05-01T09:40:31.467Z,171.50
2019-05-01T09:43:01.155Z,175.47
2019-05-01T09:45:29.946Z,175.17
2019-05-01T09:47:58.277Z,172.13
2019-05-01T09:50:30.411Z,163.07
2019-05-01T09:53:03.986Z,164.10
2019-05-01T09:55:39.938Z,171.77
2019-05-01T09:58:08.126Z,167.30
2019-05-01T10:00:36.586Z,171.87
2019-05-01T10:03:04.775Z,169.27
2019-05-01T10:05:33.012Z,169.73
2019-05-01T10:08:04.110Z,164.07
2019-05-01T10:10:32.040Z,172.17
2019-05-01T10:13:00.246Z,163.27
2019-05-01T10:15:28.525Z,167.37
2019-05-01T10:17:56.717Z,166.30
2019-05-01T10:20:24.930Z,158.00
2019-05-01T10:22:53.531Z,164.30
2019-05-01T10:25:22.007Z,158.40
2019-05-01T10:28:00.746Z,152.30
2019-05-01T10:30:36.349Z,151.87
2019-05-01T10:33:08.126Z,146.87
2019-05-01T10:35:43.004Z,146.63
2019-05-01T10:38:10.851Z,141.83
2019-05-01T10:40:39.220Z,136.00
2019-05-01T10:43:07.434Z,136.20
2019-05-01T10:45:35.765Z,131.93
2019-05-01T10:48:03.991Z,134.03
2019-05-01T10:50:32.182Z,134.87
2019-05-01T10:53:00.409Z,122.37
2019-05-01T10:55:28.620Z,131.83
2019-05-01T10:57:56.820Z,128.53
2019-05-01T11:00:25.106Z,123.27
2019-05-01T11:02:53.297Z,121.70
2019-05-01T11:05:21.755Z,118.20
2019-05-01T11:07:49.966Z,120.03
2019-05-01T11:10:19.710Z,126.83
2019-05-01T11:12:48.218Z,115.30
2019-05-01T11:15:16.685Z,121.17
2019-05-01T11:17:45.173Z,117.00
2019-05-01T11:20:13.658Z,115.63
2019-05-01T11:22:41.851Z,109.00
2019-05-01T11:25:11.170Z,116.27
2019-05-01T11:27:39.613Z,119.27
2019-05-01T11:30:08.437Z,108.10
2019-05-01T11:32:44.163Z,116.63
2019-05-01T11:35:14.011Z,117.63
2019-05-01T11:37:43.842Z,110.73
2019-05-01T11:40:14.504Z,116.03
2019-05-01T11:42:42.694Z,113.10
2019-05-01T11:45:11.041Z,112.27
2019-05-01T11:47:39.236Z,116.13
2019-05-01T11:50:08.073Z,110.13
2019-05-01T11:52:36.275Z,109.20
2019-05-01T11:55:05.828Z,113.70
2019-05-01T11:57:34.095Z,106.60
2019-05-01T12:00:02.567Z,110.67
2019-05-01T12:02:30.755Z,107.27
2019-05-01T12:04:59.308Z,104.43
2019-05-01T12:07:27.791Z,98.93
2019-05-01T12:09:55.983Z,108.73
2019-05-01T12:12:25.841Z,100.77
2019-05-01T12:14:54.357Z,105.30
2019-05-01T12:17:24.228Z,105.57
2019-05-01T12:19:52.750Z,103.00
2019-05-01T12:22:20.975Z,106.33
2019-05-01T12:24:49.162Z,104.13
2019-05-01T12:27:17.350Z,99.97
2019-05-01T12:29:45.576Z,94.00
2019-05-01T12:32:14.023Z,93.23
2019-05-01T12:34:42.501Z,91.73
2019-05-01T12:37:24.600Z,94.07
2019-05-01T12:39:52.792Z,93.07
2019-05-01T12:42:22.886Z,95.27
2019-05-01T12:44:51.375Z,88.63
2019-05-01T12:47:30.460Z,94.53
2019-05-01T12:49:58.983Z,99.13
2019-05-01T12:52:34.570Z,96.67
2019-05-01T12:55:04.425Z,92.43
2019-05-01T12:57:32.926Z,91.00
2019-05-01T13:00:08.533Z,92.53
2019-05-01T13:02:31.046Z,89.97
2019-05-01T13:04:59.239Z,95.70
2019-05-01T13:07:27.531Z,96.87
2019-05-01T13:09:55.741Z,98.43
2019-05-01T13:12:24.212Z,94.10
2019-05-01T13:14:52.698Z,96.00
2019-05-01T13:17:20.881Z,96.80
2019-05-01T13:19:49.087Z,92.90
2019-05-01T13:22:17.301Z,93.80
2019-05-01T13:24:51.193Z,99.20
2019-05-01T13:27:21.451Z,92.27
2019-05-01T13:29:51.277Z,90.27
2019-05-01T13:32:32.770Z,89.97
2019-05-01T13:35:00.971Z,90.63
2019-05-01T13:37:29.149Z,91.70
2019-05-01T13:39:57.361Z,91.57
2019-05-01T13:42:25.838Z,86.23
2019-05-01T13:44:54.314Z,91.67
2019-05-01T13:47:22.534Z,91.93
2019-05-01T13:49:50.724Z,87.40
2019-05-01T13:52:19.258Z,95.97
2019-05-01T13:54:47.531Z,92.23
2019-05-01T13:57:16.009Z,90.57
2019-05-01T13:59:44.197Z,92.17
2019-05-01T14:02:12.558Z,94.27
2019-05-01T14:04:40.847Z,95.77
2019-05-01T14:07:16.469Z,92.20
2019-05-01T14:09:40.298Z,98.17
2019-05-01T14:12:08.721Z,98.87
2019-05-01T14:14:36.908Z,95.83
2019-05-01T14:17:05.122Z,98.10
2019-05-01T14:19:35.194Z,100.33
2019-05-01T14:22:08.015Z,96.40
2019-05-01T14:24:37.845Z,102.37
2019-05-01T14:27:07.811Z,101.73
2019-05-01T14:29:36.257Z,102.47
2019-05-01T14:32:04.519Z,98.67
2019-05-01T14:34:32.738Z,93.27
2019-05-01T14:37:00.922Z,88.10
2019-05-01T14:39:29.381Z,90.77
2019-05-01T14:41:57.666Z,94.10
2019-05-01T14:44:36.175Z,94.60
2019-05-01T14:46:56.056Z,102.43
2019-05-01T14:49:24.531Z,96.10
2019-05-01T14:51:52.713Z,97.80
2019-05-01T14:54:20.926Z,94.00
2019-05-01T14:56:49.133Z,101.23
2019-05-01T14:59:17.326Z,98.67
2019-05-01T15:01:47.307Z,93.43
2019-05-01T15:04:15.603Z,82.03
2019-05-01T15:06:43.821Z,98.03
2019-05-01T15:09:12.375Z,91.63
2019-05-01T15:11:42.079Z,83.77
2019-05-01T15:14:14.863Z,89.87
2019-05-01T15:16:50.709Z,84.67
2019-05-01T15:19:20.585Z,85.70
2019-05-01T15:21:49.110Z,84.90
2019-05-01T15:24:17.333Z,77.87
2019-05-01T15:26:47.124Z,88.73
2019-05-01T15:29:15.609Z,81.77
2019-05-01T15:31:44.055Z,84.10
2019-05-01T15:34:12.285Z,80.37
2019-05-01T15:36:40.712Z,81.87
2019-05-01T15:39:11.118Z,79.83
2019-05-01T15:41:46.923Z,76.93
2019-05-01T15:44:22.738Z,74.93
2019-05-01T15:46:50.942Z,75.53
2019-05-01T15:49:19.125Z,77.97
2019-05-01T15:51:47.668Z,83.37
2019-05-01T15:54:16.157Z,80.47
2019-05-01T15:56:44.334Z,77.17
2019-05-01T15:59:12.893Z,79.27
2019-05-01T16:01:41.374Z,73.90
2019-05-01T16:04:09.561Z,73.83
2019-05-01T16:06:37.766Z,70.67
2019-05-01T16:09:07.196Z,75.73
2019-05-01T16:11:53.359Z,75.90
2019-05-01T16:14:21.545Z,75.37
2019-05-01T16:16:49.741Z,68.43
2019-05-01T16:19:18.258Z,72.90
2019-05-01T16:21:46.735Z,69.57
2019-05-01T16:24:15.222Z,69.00
2019-05-01T16:26:43.698Z,70.03
2019-05-01T16:29:12.194Z,68.80
2019-05-01T16:31:40.389Z,63.70
2019-05-01T16:34:08.587Z,64.63
2019-05-01T16:36:37.202Z,62.63
2019-05-01T16:39:14.810Z,63.30
2019-05-01T16:41:47.171Z,60.47
2019-05-01T16:44:15.358Z,62.23
2019-05-01T16:46:43.555Z,58.97
2019-05-01T16:49:11.741Z,64.27
2019-05-01T16:51:40.265Z,58.97
2019-05-01T16:54:09.375Z,60.67
2019-05-01T16:56:37.636Z,59.63
2019-05-01T16:59:06.428Z,61.37
2019-05-01T17:01:44.794Z,62.43
2019-05-01T17:04:27.038Z,59.97
2019-05-01T17:07:02.749Z,62.10
2019-05-01T17:09:44.895Z,62.83
2019-05-01T17:12:17.413Z,59.70
2019-05-01T17:14:48.721Z,57.87
2019-05-01T17:17:18.537Z,56.77
2019-05-01T17:19:46.749Z,55.50
2019-05-01T17:22:16.176Z,56.13
2019-05-01T17:24:44.627Z,54.80
2019-05-01T17:27:12.811Z,56.57
2019-05-01T17:29:41.025Z,55.53
2019-05-01T17:32:10.854Z,54.87
2019-05-01T17:34:39.073Z,52.50
2019-05-01T17:37:07.257Z,50.77
2019-05-01T17:39:35.517Z,50.53
2019-05-01T17:42:04.739Z,57.77
2019-05-01T17:44:33.345Z,50.57
2019-05-01T17:47:01.535Z,50.83
2019-05-01T17:49:29.998Z,52.40
2019-05-01T17:51:58.211Z,55.20
2019-05-01T17:54:26.395Z,53.87
2019-05-01T17:56:55.795Z,52.83
2019-05-01T17:59:24.086Z,52.30
2019-05-01T18:01:57.202Z,56.37
2019-05-01T18:04:27.047Z,51.70
2019-05-01T18:06:55.494Z,55.13
2019-05-01T18:09:23.722Z,54.23
2019-05-01T18:11:52.716Z,52.37
2019-05-01T18:14:22.272Z,50.60
2019-05-01T18:16:50.852Z,54.30
2019-05-01T18:19:19.347Z,55.50
2019-05-01T18:21:51.823Z,53.73
2019-05-01T18:24:39.473Z,55.87
2019-05-01T18:27:25.797Z,56.67
2019-05-01T18:29:55.954Z,54.90
2019-05-01T18:32:28.938Z,59.07
2019-05-01T18:34:57.158Z,56.10
2019-05-01T18:37:31.256Z,57.13
2019-05-01T18:39:57.962Z,58.90
2019-05-01T18:42:26.181Z,58.57
2019-05-01T18:44:54.525Z,59.40
2019-05-01T18:47:22.994Z,55.10
2019-05-01T18:49:51.481Z,61.30
2019-05-01T18:52:19.787Z,57.00
2019-05-01T18:54:48.041Z,57.00
2019-05-01T18:57:16.308Z,58.23
2019-05-01T18:59:44.518Z,61.30
2019-05-01T19:02:12.716Z,59.07
2019-05-01T19:04:40.930Z,62.23
2019-05-01T19:07:09.129Z,64.80
2019-05-01T19:09:37.784Z,58.67
2019-05-01T19:12:07.774Z,62.43
2019-05-01T19:14:36.386Z,61.53
2019-05-01T19:17:04.707Z,57.17
2019-05-01T19:19:32.923Z,64.23
2019-05-01T19:22:01.181Z,60.57
2019-05-01T19:24:32.547Z,62.30
2019-05-01T19:26:59.610Z,61.70
2019-05-01T19:29:31.965Z,66.10
2019-05-01T19:31:57.857Z,65.40
2019-05-01T19:34:26.433Z,71.03
2019-05-01T19:36:54.654Z,70.30
2019-05-01T19:39:22.925Z,71.60
2019-05-01T19:41:54.271Z,65.90
2019-05-01T19:44:21.190Z,69.07
2019-05-01T19:46:49.795Z,72.77
2019-05-01T19:49:18.010Z,73.83
2019-05-01T19:51:46.192Z,70.90
2019-05-01T19:54:14.443Z,75.17
2019-05-01T19:56:42.700Z,72.00
2019-05-01T19:59:11.036Z,72.40
2019-05-01T20:01:44.580Z,73.13
2019-05-01T20:04:13.276Z,71.30
2019-05-01T20:06:40.213Z,76.33
2019-05-01T20:09:09.078Z,74.67
2019-05-01T20:11:37.561Z,71.17
2019-05-01T20:14:06.359Z,77.70
2019-05-01T20:16:34.742Z,77.43
2019-05-01T20:19:02.921Z,73.80
2019-05-01T20:21:31.110Z,85.87
2019-05-01T20:23:59.332Z,80.73
2019-05-01T20:26:32.024Z,86.97
2019-05-01T20:29:00.392Z,85.17
2019-05-01T20:31:30.152Z,84.63
2019-05-01T20:33:57.994Z,89.70
2019-05-01T20:36:26.181Z,86.37
2019-05-01T20:38:54.413Z,89.33
2019-05-01T20:41:25.286Z,95.17
2019-05-01T20:43:53.462Z,86.40
2019-05-01T20:46:26.157Z,85.63
2019-05-01T20:48:56.008Z,88.73
2019-05-01T20:51:21.873Z,93.93
2019-05-01T20:53:50.332Z,97.13
2019-05-01T20:56:22.822Z,90.93
2019-05-01T20:58:51.317Z,92.23
2019-05-01T21:01:24.374Z,95.20
2019-05-01T21:03:56.211Z,100.13
2019-05-01T21:06:28.119Z,96.13
2019-05-01T21:09:03.182Z,94.57
2019-05-01T21:11:36.081Z,90.03
2019-05-01T21:14:19.652Z,90.60
2019-05-01T21:16:37.881Z,92.00
2019-05-01T21:19:04.888Z,91.67
2019-05-01T21:21:34.380Z,93.53
2019-05-01T21:24:03.665Z,99.93
2019-05-01T21:26:33.531Z,101.10
2019-05-01T21:29:03.930Z,106.50
2019-05-01T21:31:33.988Z,107.33
2019-05-01T21:34:04.238Z,113.83
2019-05-01T21:36:32.302Z,118.90
2019-05-01T21:39:00.609Z,133.00
2019-05-01T21:41:28.828Z,129.37
2019-05-01T21:43:57.310Z,139.07
2019-05-01T21:46:25.525Z,139.63
2019-05-01T21:48:53.718Z,134.37
2019-05-01T21:51:22.760Z,145.87
2019-05-01T21:53:52.941Z,162.07
2019-05-01T21:56:21.299Z,153.47
2019-05-01T21:58:49.517Z,152.20
2019-05-01T22:01:17.730Z,164.00
2019-05-01T22:03:45.946Z,173.90
2019-05-01T22:06:15.405Z,166.33
2019-05-01T22:08:44.086Z,178.70
2019-05-01T22:11:12.281Z,171.47
2019-05-01T22:13:40.511Z,157.07
2019-05-01T22:16:10.631Z,168.47
2019-05-01T22:18:40.506Z,165.00
2019-05-01T22:21:13.631Z,152.77
2019-05-01T22:23:49.279Z,167.20
2019-05-01T22:26:17.948Z,156.30
2019-05-01T22:28:50.164Z,164.67
2019-05-01T22:31:23.461Z,158.57
2019-05-01T22:33:53.642Z,156.93
2019-05-01T22:36:21.866Z,142.00
2019-05-01T22:38:50.054Z,148.97
2019-05-01T22:41:18.566Z,137.20
2019-05-01T22:43:46.783Z,125.13
2019-05-01T22:46:16.610Z,113.10
2019-05-01T22:48:44.826Z,122.80
2019-05-01T22:51:17.765Z,119.30
2019-05-01T22:53:47.594Z,116.73
2019-05-01T22:56:15.836Z,123.60
2019-05-01T22:58:44.278Z,126.00
2019-05-01T23:01:13.151Z,129.33
2019-05-01T23:03:50.754Z,145.60
2019-05-01T23:06:18.971Z,142.23
2019-05-01T23:08:47.234Z,140.93
2019-05-01T23:11:19.991Z,139.30
2019-05-01T23:13:45.913Z,144.33
2019-05-01T23:16:14.958Z,152.20
2019-05-01T23:18:47.119Z,155.73
2019-05-01T23:21:14.642Z,162.33
2019-05-01T23:23:43.313Z,172.70
2019-05-01T23:26:16.049Z,168.93
2019-05-01T23:28:41.738Z,165.93
2019-05-01T23:31:09.953Z,177.17
2019-05-01T23:33:38.462Z,176.47
2019-05-01T23:36:07.049Z,167.03
2019-05-01T23:38:35.250Z,158.87
2019-05-01T23:41:03.525Z,176.20
2019-05-01T23:43:31.751Z,167.70
2019-05-01T23:46:00.250Z,165.87
2019-05-01T23:48:28.442Z,153.80
2019-05-01T23:50:56.664Z,146.77
2019-05-01T23:53:24.856Z,144.67
2019-05-01T23:55:54.643Z,136.00
2019-05-01T23:58:23.262Z,133.97
